Terminal Aerodrome Forecast
Issued by NWS Anchorage, AK

Home | Current Version | Previous Version | Text Only | Print | Product List | Glossary On
Versions: 1 2 3 4 5 6 7 8 9 10 11 12 13 14 15 16 17 18 19 20 21 22 23 24
000
FTAK31 PANC 150629 AAB
TAFANC
TAF AMD
PANC 150629Z 1506/1612 17006KT P6SM VCSH OVC060
     FM151500 15003KT P6SM BKN100
     FM152100 03005KT P6SM VCSH BKN060 WS020/12040KT=

USA.gov is the U.S. government's official web portal to all federal, state and local government web resources and services.